Time;durP1;ratioP1;P1;durP2;ratioP2;P2;SDS_P1;SDS_P2;PMS_P1;PMS_P2;Temp;Humidity;BMP_temperature;BMP_pressure;BME280_temperature;BME280_humidity;BME280_pressure;Samples;Min_cycle;Max_cycle;Signal;HPM_P1;HPM_P2
2021/01/06 05:49:32;;;;;;;9.02;5.93;;;;;;;;;;5047217;27;20722;-81
2021/01/06 05:52:01;;;;;;;10.88;5.82;;;;;;;;;;5022920;28;20073;-79
2021/01/06 05:54:35;;;;;;;9.00;5.47;;;;;;;;;;5029433;28;20080;-79
2021/01/06 05:57:01;;;;;;;10.48;6.45;;;;;;;;;;5043497;28;20086;-80
2021/01/06 05:59:45;;;;;;;8.45;5.38;;;;;;;;;;5030706;28;20022;-80
2021/01/06 06:02:21;;;;;;;10.10;5.07;;;;;;;;;;5069689;23;20277;-84
2021/01/06 06:05:11;;;;;;;9.00;5.03;;;;;;;;;;5076992;28;20050;-84
2021/01/06 06:07:41;;;;;;;8.60;4.95;;;;;;;;;;5004152;28;20429;-84
2021/01/06 06:10:25;;;;;;;8.18;5.55;;;;;;;;;;5076709;28;20030;-84
2021/01/06 06:13:02;;;;;;;8.15;5.80;;;;;;;;;;5065707;28;20030;-84
2021/01/06 06:15:28;;;;;;;8.75;5.28;;;;;;;;;;4989983;28;20060;-84
2021/01/06 06:18:23;;;;;;;7.93;5.30;;;;;;;;;;4990143;28;20038;-84
2021/01/06 06:20:59;;;;;;;9.55;5.63;;;;;;;;;;5010360;28;20054;-84
2021/01/06 06:23:44;;;;;;;7.78;5.10;;;;;;;;;;5012199;28;20096;-84
2021/01/06 06:26:10;;;;;;;7.72;4.85;;;;;;;;;;4995458;28;20632;-84
2021/01/06 06:28:40;;;;;;;9.13;6.03;;;;;;;;;;4999449;28;20083;-84
2021/01/06 06:31:16;;;;;;;11.20;6.43;;;;;;;;;;4988359;28;20022;-84
2021/01/06 06:33:41;;;;;;;9.55;6.65;;;;;;;;;;4991189;28;20022;-84
2021/01/06 06:36:19;;;;;;;8.52;5.95;;;;;;;;;;4999200;28;20392;-84
2021/01/06 06:38:47;;;;;;;10.05;5.78;;;;;;;;;;4990310;28;20053;-84
2021/01/06 06:41:22;;;;;;;8.48;5.70;;;;;;;;;;5054639;28;20196;-84
2021/01/06 06:43:50;;;;;;;8.48;5.43;;;;;;;;;;5054712;28;20018;-84
2021/01/06 06:46:20;;;;;;;9.13;5.93;;;;;;;;;;4987874;28;20031;-84
2021/01/06 06:48:46;;;;;;;9.40;6.05;;;;;;;;;;5051798;28;20050;-84
2021/01/06 06:51:24;;;;;;;8.35;5.65;;;;;;;;;;5042687;28;20478;-84
2021/01/06 06:54:04;;;;;;;8.02;5.38;;;;;;;;;;4973936;28;20038;-84
2021/01/06 06:56:41;;;;;;;9.73;5.68;;;;;;;;;;5048575;28;20027;-84
2021/01/06 06:59:14;;;;;;;9.73;5.68;;;;;;;;;;5051950;28;20073;-84
2021/01/06 07:01:44;;;;;;;10.30;5.65;;;;;;;;;;4979318;28;20087;-84
2021/01/06 07:04:24;;;;;;;9.02;5.95;;;;;;;;;;5041621;28;20081;-84
2021/01/06 07:06:52;;;;;;;8.75;5.65;;;;;;;;;;5042038;28;20035;-84
2021/01/06 07:09:26;;;;;;;11.70;6.78;;;;;;;;;;5042900;28;20081;-84
2021/01/06 07:11:58;;;;;;;9.05;5.72;;;;;;;;;;5009444;28;20057;-84
2021/01/06 07:14:28;;;;;;;11.48;6.28;;;;;;;;;;4990572;28;20036;-84
2021/01/06 07:16:59;;;;;;;11.40;6.65;;;;;;;;;;4982595;28;20027;-84
2021/01/06 07:19:25;;;;;;;9.55;6.05;;;;;;;;;;5057029;28;20017;-84
2021/01/06 07:21:57;;;;;;;10.00;6.75;;;;;;;;;;5009869;28;20030;-84
2021/01/06 07:24:23;;;;;;;;;;;;;;;;;;5044608;28;20026;-84
2021/01/06 07:26:51;;;;;;;9.23;6.18;;;;;;;;;;5040268;28;19917;-84
2021/01/06 07:29:18;;;;;;;11.80;6.07;;;;;;;;;;4973532;28;20082;-84
2021/01/06 07:31:56;;;;;;;12.05;7.18;;;;;;;;;;5045391;28;20119;-84
2021/01/06 07:34:29;;;;;;;9.82;6.00;;;;;;;;;;4972431;28;20408;-84
2021/01/06 07:36:57;;;;;;;10.60;6.38;;;;;;;;;;4978760;28;20090;-84
2021/01/06 07:39:26;;;;;;;9.93;5.70;;;;;;;;;;4975306;28;20030;-84
2021/01/06 07:41:52;;;;;;;10.50;6.40;;;;;;;;;;4970085;28;20026;-84
2021/01/06 07:44:29;;;;;;;12.98;6.20;;;;;;;;;;4970631;28;20096;-84
2021/01/06 07:47:05;;;;;;;10.55;6.05;;;;;;;;;;5047578;28;20381;-84
2021/01/06 07:49:36;;;;;;;9.18;6.20;;;;;;;;;;4973149;28;20043;-84
2021/01/06 07:52:07;;;;;;;8.57;5.35;;;;;;;;;;4966761;28;20393;-84
2021/01/06 07:56:51;;;;;;;8.52;5.45;;;;;;;;;;5111742;27;20850;-84
2021/01/06 07:59:23;;;;;;;10.00;5.97;;;;;;;;;;5099445;28;20082;-83
2021/01/06 08:01:49;;;;;;;;;;;;;;;;;;5102848;28;20028;-83
2021/01/06 08:04:21;;;;;;;9.73;5.65;;;;;;;;;;5100681;28;19912;-84
2021/01/06 08:09:05;;;;;;;10.45;6.30;;;;;;;;;;5108437;27;20356;-84
2021/01/06 08:11:31;;;;;;;10.73;6.03;;;;;;;;;;5108661;28;20077;-85
2021/01/06 08:14:03;;;;;;;8.95;6.30;;;;;;;;;;5099917;28;20031;-84
2021/01/06 08:16:33;;;;;;;11.02;6.63;;;;;;;;;;5107102;28;20030;-84
2021/01/06 08:19:11;;;;;;;10.13;6.17;;;;;;;;;;5103791;28;20035;-84
2021/01/06 08:21:46;;;;;;;10.95;5.68;;;;;;;;;;5104717;28;20024;-84
2021/01/06 08:24:36;;;;;;;11.60;6.18;;;;;;;;;;5104056;28;20055;-84
2021/01/06 08:27:03;;;;;;;10.30;5.80;;;;;;;;;;5096317;28;20127;-83
2021/01/06 08:29:32;;;;;;;12.15;6.72;;;;;;;;;;5099911;28;20016;-84
2021/01/06 08:32:04;;;;;;;10.05;6.53;;;;;;;;;;5101568;28;20024;-84
2021/01/06 08:34:32;;;;;;;10.95;7.15;;;;;;;;;;5100560;28;20043;-84
2021/01/06 08:36:59;;;;;;;10.35;6.65;;;;;;;;;;5095126;28;20692;-84
2021/01/06 08:39:26;;;;;;;12.02;7.65;;;;;;;;;;5101048;28;20025;-84
2021/01/06 08:41:53;;;;;;;9.80;6.30;;;;;;;;;;5100885;28;20497;-85
2021/01/06 08:44:29;;;;;;;9.57;5.65;;;;;;;;;;5101021;28;20080;-84
2021/01/06 08:46:57;;;;;;;10.57;6.25;;;;;;;;;;5096821;28;20032;-84
2021/01/06 08:49:25;;;;;;;9.93;6.28;;;;;;;;;;5100574;28;20472;-84
2021/01/06 08:51:52;;;;;;;9.93;6.07;;;;;;;;;;5101824;28;20016;-84
2021/01/06 08:54:38;;;;;;;10.95;6.88;;;;;;;;;;5098744;28;20035;-83
2021/01/06 08:57:04;;;;;;;9.68;6.47;;;;;;;;;;5098915;28;20075;-83
2021/01/06 08:59:34;;;;;;;12.18;7.47;;;;;;;;;;5098296;28;20462;-82
2021/01/06 09:02:00;;;;;;;11.40;6.78;;;;;;;;;;5110031;28;20475;-83
2021/01/06 09:04:35;;;;;;;10.35;5.88;;;;;;;;;;5095809;28;20027;-83
2021/01/06 09:07:04;;;;;;;9.18;5.85;;;;;;;;;;5100796;28;20028;-83
2021/01/06 09:09:42;;;;;;;11.50;6.75;;;;;;;;;;5095826;28;20020;-84
2021/01/06 09:12:41;;;;;;;13.02;7.55;;;;;;;;;;5106746;28;20036;-84
2021/01/06 09:15:14;;;;;;;12.80;8.15;;;;;;;;;;5089077;28;20039;-84
2021/01/06 09:17:48;;;;;;;16.27;9.68;;;;;;;;;;5100517;28;20174;-84
2021/01/06 09:20:22;;;;;;;19.20;11.85;;;;;;;;;;5084109;28;20532;-84
2021/01/06 09:22:48;;;;;;;20.15;11.43;;;;;;;;;;5088858;28;20578;-84
2021/01/06 09:25:20;;;;;;;14.02;7.85;;;;;;;;;;5090844;28;20058;-84
2021/01/06 09:27:47;;;;;;;13.55;7.80;;;;;;;;;;5086977;28;20029;-83
2021/01/06 09:30:16;;;;;;;12.57;7.05;;;;;;;;;;5083716;28;20353;-84
2021/01/06 09:32:43;;;;;;;18.08;7.75;;;;;;;;;;5083034;28;20085;-85
2021/01/06 09:35:11;;;;;;;10.70;6.80;;;;;;;;;;5088743;28;20031;-84
2021/01/06 09:37:39;;;;;;;16.35;8.35;;;;;;;;;;5082137;28;20029;-84
2021/01/06 09:40:14;;;;;;;23.60;13.23;;;;;;;;;;5082087;28;20020;-85
2021/01/06 09:42:41;;;;;;;22.45;11.77;;;;;;;;;;5082093;28;20036;-84
2021/01/06 09:45:08;;;;;;;22.63;12.35;;;;;;;;;;5081533;28;20031;-85
2021/01/06 09:47:36;;;;;;;13.98;8.77;;;;;;;;;;5088571;28;20056;-85
2021/01/06 09:50:14;;;;;;;15.10;9.38;;;;;;;;;;5087299;28;20028;-84
2021/01/06 09:52:40;;;;;;;14.80;8.60;;;;;;;;;;5085157;28;20044;-84
2021/01/06 09:55:07;;;;;;;12.10;7.88;;;;;;;;;;5088517;28;20024;-84
2021/01/06 09:57:33;;;;;;;12.13;7.78;;;;;;;;;;5093396;28;20036;-85
2021/01/06 10:00:09;;;;;;;16.38;9.00;;;;;;;;;;5087146;28;20103;-85
2021/01/06 10:02:37;;;;;;;17.52;10.20;;;;;;;;;;5092907;28;20028;-84
2021/01/06 10:05:06;;;;;;;19.33;10.40;;;;;;;;;;5091243;28;20036;-84
2021/01/06 10:07:50;;;;;;;19.08;11.02;;;;;;;;;;5088138;28;20028;-85
2021/01/06 10:10:22;;;;;;;19.48;11.13;;;;;;;;;;5091554;28;20564;-84
2021/01/06 10:12:51;;;;;;;20.35;10.98;;;;;;;;;;5093716;28;20387;-84
2021/01/06 10:15:43;;;;;;;17.90;10.57;;;;;;;;;;5093109;28;20040;-86
2021/01/06 10:18:22;;;;;;;19.58;11.88;;;;;;;;;;5097002;28;20046;-83
2021/01/06 10:20:48;;;;;;;16.38;11.75;;;;;;;;;;5094019;28;20357;-83
2021/01/06 10:23:50;;;;;;;25.85;14.65;;;;;;;;;;5096268;28;20034;-83
2021/01/06 10:26:28;;;;;;;21.17;11.70;;;;;;;;;;5079795;28;20582;-83
2021/01/06 10:28:54;;;;;;;17.73;11.90;;;;;;;;;;5097393;28;20043;-83
2021/01/06 10:31:22;;;;;;;19.08;11.60;;;;;;;;;;5093002;28;20031;-83
2021/01/06 10:34:08;;;;;;;25.73;15.75;;;;;;;;;;5096426;28;20028;-83
2021/01/06 10:37:01;;;;;;;25.10;15.93;;;;;;;;;;5092498;28;20078;-84
2021/01/06 10:39:29;;;;;;;30.98;19.42;;;;;;;;;;5089757;28;20055;-83
2021/01/06 10:42:00;;;;;;;31.83;18.48;;;;;;;;;;5096364;28;20029;-83
2021/01/06 10:44:30;;;;;;;27.05;15.80;;;;;;;;;;5098120;28;20496;-83
2021/01/06 10:47:16;;;;;;;21.48;13.00;;;;;;;;;;5096130;28;20084;-83
2021/01/06 10:49:45;;;;;;;21.92;13.32;;;;;;;;;;5096453;28;20016;-83
2021/01/06 10:52:19;;;;;;;20.60;12.93;;;;;;;;;;5106490;28;20076;-83
2021/01/06 10:54:54;;;;;;;21.90;12.98;;;;;;;;;;5113371;28;20058;-83
2021/01/06 10:57:31;;;;;;;17.90;12.20;;;;;;;;;;5114635;28;20008;-83
2021/01/06 11:02:35;;;;;;;14.73;9.48;;;;;;;;;;5114193;27;20199;-83
2021/01/06 11:05:08;;;;;;;17.35;9.80;;;;;;;;;;5096552;28;20020;-83
2021/01/06 11:07:55;;;;;;;15.43;8.65;;;;;;;;;;5089973;28;20028;-83
2021/01/06 11:10:24;;;;;;;15.43;10.23;;;;;;;;;;5096922;28;20028;-83
2021/01/06 11:13:03;;;;;;;15.48;10.40;;;;;;;;;;5098009;28;20036;-83
2021/01/06 11:15:55;;;;;;;16.75;11.30;;;;;;;;;;5096008;28;20039;-83
2021/01/06 11:18:24;;;;;;;15.18;9.57;;;;;;;;;;5092126;28;20032;-83
2021/01/06 11:21:05;;;;;;;12.98;8.48;;;;;;;;;;5080830;28;20508;-84
2021/01/06 11:23:34;;;;;;;16.33;11.25;;;;;;;;;;5090303;28;20020;-83
2021/01/06 11:26:02;;;;;;;14.43;9.90;;;;;;;;;;5092542;28;20021;-84
2021/01/06 11:28:46;;;;;;;15.20;9.98;;;;;;;;;;5084034;28;20032;-84
2021/01/06 11:31:18;;;;;;;18.05;10.40;;;;;;;;;;5082419;28;20036;-84
2021/01/06 11:33:45;;;;;;;15.40;9.80;;;;;;;;;;5083502;28;20025;-84
2021/01/06 11:36:17;;;;;;;15.45;10.10;;;;;;;;;;5076070;28;20048;-83
2021/01/06 11:38:42;;;;;;;14.50;10.88;;;;;;;;;;5091462;28;20480;-83
2021/01/06 11:41:14;;;;;;;17.65;10.90;;;;;;;;;;5082163;28;20094;-84
2021/01/06 11:43:42;;;;;;;20.80;12.30;;;;;;;;;;5085789;28;20024;-83
2021/01/06 11:46:27;;;;;;;17.60;11.77;;;;;;;;;;5074025;28;20043;-83
2021/01/06 11:49:11;;;;;;;14.95;10.65;;;;;;;;;;5081837;28;20077;-83
2021/01/06 11:51:38;;;;;;;18.55;10.77;;;;;;;;;;5074682;28;20037;-84
2021/01/06 11:54:16;;;;;;;13.52;8.30;;;;;;;;;;5070231;28;20490;-84
2021/01/06 11:59:10;;;;;;;14.13;8.52;;;;;;;;;;5112085;27;20363;-82
2021/01/06 12:01:36;;;;;;;14.95;9.15;;;;;;;;;;5121065;22;20123;-81
2021/01/06 12:04:11;;;;;;;14.45;8.25;;;;;;;;;;5094723;28;20056;-81
2021/01/06 12:06:44;;;;;;;13.95;8.10;;;;;;;;;;5093008;28;20024;-81
2021/01/06 12:09:20;;;;;;;14.32;8.43;;;;;;;;;;5094395;28;20031;-81
2021/01/06 12:12:05;;;;;;;15.73;8.88;;;;;;;;;;5082024;28;20027;-81
2021/01/06 12:14:33;;;;;;;12.45;8.02;;;;;;;;;;5112193;28;20020;-81
2021/01/06 12:17:19;;;;;;;12.55;8.73;;;;;;;;;;5088907;28;20035;-81
2021/01/06 12:19:56;;;;;;;16.33;9.43;;;;;;;;;;5107945;28;20102;-80
2021/01/06 12:22:22;;;;;;;15.32;10.05;;;;;;;;;;5097526;28;20032;-81
2021/01/06 12:24:51;;;;;;;13.50;9.23;;;;;;;;;;5095122;28;20103;-81
2021/01/06 12:27:50;;;;;;;13.02;9.05;;;;;;;;;;5092591;28;20027;-81
2021/01/06 12:30:15;;;;;;;14.07;9.45;;;;;;;;;;5037574;28;20040;-80
2021/01/06 12:32:45;;;;;;;19.27;10.55;;;;;;;;;;5092313;28;20038;-81
2021/01/06 12:35:14;;;;;;;15.55;10.60;;;;;;;;;;5090891;28;20029;-81
2021/01/06 12:37:42;;;;;;;17.45;11.73;;;;;;;;;;5110961;28;20043;-81
2021/01/06 12:40:28;;;;;;;18.80;12.05;;;;;;;;;;5096092;28;20081;-81
2021/01/06 12:43:01;;;;;;;16.77;10.18;;;;;;;;;;5091867;28;20031;-81
2021/01/06 12:45:35;;;;;;;22.88;12.93;;;;;;;;;;5086437;28;20031;-81
2021/01/06 12:48:14;;;;;;;19.73;12.88;;;;;;;;;;5092777;28;20024;-81
2021/01/06 12:50:50;;;;;;;20.50;13.48;;;;;;;;;;5106880;28;20069;-81
2021/01/06 12:53:21;;;;;;;22.40;14.05;;;;;;;;;;5089184;28;20031;-81
2021/01/06 12:55:50;;;;;;;25.42;15.70;;;;;;;;;;5088405;28;20031;-81
2021/01/06 12:58:16;;;;;;;19.70;12.75;;;;;;;;;;5105300;28;20043;-80
2021/01/06 13:00:43;;;;;;;22.42;15.05;;;;;;;;;;5109143;28;20020;-81
2021/01/06 13:03:12;;;;;;;20.80;13.93;;;;;;;;;;5092872;28;20119;-81
2021/01/06 13:05:38;;;;;;;20.45;13.70;;;;;;;;;;5093111;28;20028;-81
2021/01/06 13:08:06;;;;;;;22.58;14.65;;;;;;;;;;5095154;28;20035;-81
2021/01/06 13:10:45;;;;;;;19.55;13.73;;;;;;;;;;5075827;28;20020;-83
2021/01/06 13:13:29;;;;;;;20.40;14.00;;;;;;;;;;5095004;28;20395;-80
2021/01/06 13:16:01;;;;;;;22.95;15.45;;;;;;;;;;5073109;28;20057;-81
2021/01/06 13:18:36;;;;;;;23.13;14.57;;;;;;;;;;5085055;28;20668;-81
2021/01/06 13:21:16;;;;;;;20.90;13.25;;;;;;;;;;5078818;28;20038;-81
2021/01/06 13:23:45;;;;;;;20.65;13.98;;;;;;;;;;5075160;28;20059;-81
2021/01/06 13:26:17;;;;;;;21.45;14.23;;;;;;;;;;5092711;28;20048;-80
2021/01/06 13:29:06;;;;;;;23.33;15.00;;;;;;;;;;5066931;28;20104;-81
2021/01/06 13:31:42;;;;;;;24.05;14.75;;;;;;;;;;5093708;28;20064;-81
2021/01/06 13:34:18;;;;;;;23.17;15.10;;;;;;;;;;5096590;28;20391;-80
2021/01/06 13:36:46;;;;;;;21.85;14.63;;;;;;;;;;5088147;28;20796;-80
2021/01/06 13:39:27;;;;;;;21.67;15.20;;;;;;;;;;5092700;28;20044;-81
2021/01/06 13:44:17;;;;;;;25.63;16.60;;;;;;;;;;5098281;27;20352;-81
2021/01/06 13:47:01;;;;;;;25.52;17.58;;;;;;;;;;5095750;28;20027;-81
2021/01/06 13:49:27;;;;;;;23.33;16.60;;;;;;;;;;5087054;28;20569;-81
2021/01/06 13:52:09;;;;;;;18.95;14.15;;;;;;;;;;5095035;28;20032;-81
2021/01/06 13:54:40;;;;;;;19.65;12.85;;;;;;;;;;5085389;28;20024;-80
2021/01/06 13:57:10;;;;;;;20.27;13.55;;;;;;;;;;5089560;28;20032;-81
2021/01/06 13:59:47;;;;;;;23.17;15.68;;;;;;;;;;5095907;28;20027;-81
2021/01/06 14:02:21;;;;;;;21.10;14.57;;;;;;;;;;5100482;28;20451;-81
2021/01/06 14:04:52;;;;;;;21.55;13.50;;;;;;;;;;5086790;28;20369;-81
2021/01/06 14:07:26;;;;;;;21.63;13.20;;;;;;;;;;5095438;28;20020;-81
2021/01/06 14:10:04;;;;;;;24.83;15.45;;;;;;;;;;5099448;28;20078;-81
2021/01/06 14:12:50;;;;;;;18.63;12.65;;;;;;;;;;5099696;28;20660;-81
2021/01/06 14:15:41;;;;;;;18.10;12.55;;;;;;;;;;5094975;28;20016;-81
2021/01/06 14:18:10;;;;;;;18.60;11.85;;;;;;;;;;5102364;28;20029;-80
2021/01/06 14:20:48;;;;;;;16.10;11.45;;;;;;;;;;5105125;28;20065;-81
2021/01/06 14:23:20;;;;;;;20.90;12.95;;;;;;;;;;5101692;28;20036;-78
2021/01/06 14:25:45;;;;;;;16.52;11.65;;;;;;;;;;5101563;28;20024;-81
2021/01/06 14:28:21;;;;;;;16.42;10.98;;;;;;;;;;5095768;28;20056;-81
2021/01/06 14:30:54;;;;;;;18.13;11.95;;;;;;;;;;5096816;28;20345;-80
2021/01/06 14:33:32;;;;;;;17.13;11.02;;;;;;;;;;5103336;28;20028;-80
2021/01/06 14:36:06;;;;;;;16.20;9.95;;;;;;;;;;5099504;28;20020;-80
2021/01/06 14:38:35;;;;;;;14.68;10.15;;;;;;;;;;5096497;28;20024;-80
2021/01/06 14:41:04;;;;;;;17.52;11.95;;;;;;;;;;5098227;28;20100;-80
2021/01/06 14:43:42;;;;;;;20.58;11.85;;;;;;;;;;5098330;28;20024;-80
2021/01/06 14:46:08;;;;;;;16.88;11.52;;;;;;;;;;5097175;28;20036;-80
2021/01/06 14:48:36;;;;;;;19.88;12.00;;;;;;;;;;5096650;28;20024;-80
2021/01/06 14:51:05;;;;;;;18.63;10.10;;;;;;;;;;5098793;28;20032;-80
2021/01/06 14:53:38;;;;;;;15.43;9.88;;;;;;;;;;5084032;28;20031;-81
2021/01/06 14:56:09;;;;;;;13.77;8.80;;;;;;;;;;5084036;28;20031;-80
2021/01/06 14:58:53;;;;;;;14.50;8.98;;;;;;;;;;5077473;28;20029;-81
2021/01/06 15:01:21;;;;;;;14.73;8.73;;;;;;;;;;5075672;28;20039;-80
2021/01/06 15:04:06;;;;;;;11.18;7.97;;;;;;;;;;5081016;28;20476;-81
2021/01/06 15:06:44;;;;;;;13.32;7.75;;;;;;;;;;5078741;28;20048;-80
2021/01/06 15:09:13;;;;;;;13.55;8.10;;;;;;;;;;5080403;28;20024;-80
2021/01/06 15:11:41;;;;;;;14.45;9.55;;;;;;;;;;5076616;28;20023;-80
2021/01/06 15:14:14;;;;;;;14.55;8.80;;;;;;;;;;5078955;28;20024;-80
2021/01/06 15:16:47;;;;;;;12.45;7.38;;;;;;;;;;5080475;28;20024;-80
2021/01/06 15:19:15;;;;;;;16.45;8.07;;;;;;;;;;5066936;28;20040;-80
2021/01/06 15:21:46;;;;;;;14.75;9.30;;;;;;;;;;5068803;28;20033;-80
2021/01/06 15:24:29;;;;;;;15.98;10.48;;;;;;;;;;5077077;28;20043;-81
2021/01/06 15:26:58;;;;;;;14.35;9.00;;;;;;;;;;5077149;28;20067;-80
2021/01/06 15:29:37;;;;;;;18.13;10.88;;;;;;;;;;5078581;28;20063;-81
2021/01/06 15:32:15;;;;;;;15.77;9.50;;;;;;;;;;5069220;28;20051;-81
2021/01/06 15:34:41;;;;;;;16.17;8.88;;;;;;;;;;5078525;28;20097;-81
2021/01/06 15:37:07;;;;;;;15.02;8.35;;;;;;;;;;5068674;28;20040;-80
2021/01/06 15:39:35;;;;;;;18.35;9.52;;;;;;;;;;5082841;28;20036;-81
2021/01/06 15:44:24;;;;;;;17.92;11.30;;;;;;;;;;5088843;27;20883;-81
2021/01/06 15:46:50;;;;;;;22.90;14.65;;;;;;;;;;5080468;28;20574;-81
2021/01/06 15:49:19;;;;;;;24.85;16.55;;;;;;;;;;5071387;28;20037;-81
2021/01/06 15:51:51;;;;;;;16.50;11.75;;;;;;;;;;5073784;28;20021;-81
2021/01/06 15:54:20;;;;;;;15.00;9.68;;;;;;;;;;5086987;28;20062;-81
2021/01/06 15:56:53;;;;;;;17.27;9.10;;;;;;;;;;5088239;28;20237;-81
2021/01/06 15:59:20;;;;;;;12.98;8.43;;;;;;;;;;5089380;28;20476;-81
2021/01/06 16:01:47;;;;;;;13.32;7.85;;;;;;;;;;5090431;28;20035;-81
2021/01/06 16:04:13;;;;;;;14.43;8.57;;;;;;;;;;5100523;28;20031;-81
2021/01/06 16:07:00;;;;;;;12.43;7.18;;;;;;;;;;5086662;28;20012;-82
2021/01/06 16:09:32;;;;;;;11.43;5.93;;;;;;;;;;5101127;28;20698;-81
2021/01/06 16:11:59;;;;;;;10.80;6.82;;;;;;;;;;5086046;28;20032;-81
2021/01/06 16:14:39;;;;;;;9.82;6.10;;;;;;;;;;5094524;28;20095;-82
2021/01/06 16:19:25;;;;;;;11.10;5.95;;;;;;;;;;5096125;27;20360;-81
2021/01/06 16:21:51;;;;;;;11.55;7.57;;;;;;;;;;5090618;28;20052;-81
2021/01/06 16:24:19;;;;;;;10.30;6.25;;;;;;;;;;5086367;28;20024;-81
2021/01/06 16:26:46;;;;;;;11.43;6.88;;;;;;;;;;5088924;28;20025;-82
2021/01/06 16:29:38;;;;;;;13.25;7.28;;;;;;;;;;5087791;28;20020;-82
2021/01/06 16:32:07;;;;;;;12.57;7.25;;;;;;;;;;5095186;28;20041;-82
2021/01/06 16:34:33;;;;;;;11.55;8.02;;;;;;;;;;5090343;28;20115;-81
2021/01/06 16:37:07;;;;;;;9.50;6.15;;;;;;;;;;5087757;28;20512;-81
2021/01/06 16:39:33;;;;;;;19.02;11.45;;;;;;;;;;5086370;28;20016;-82
2021/01/06 16:42:00;;;;;;;16.23;9.77;;;;;;;;;;5091248;28;20029;-81
2021/01/06 16:46:46;;;;;;;14.80;8.73;;;;;;;;;;5113537;27;20433;-82
2021/01/06 16:49:15;;;;;;;13.23;7.85;;;;;;;;;;5095861;28;20024;-82
2021/01/06 16:51:45;;;;;;;15.88;9.82;;;;;;;;;;5099721;28;20027;-82
2021/01/06 16:54:18;;;;;;;15.45;9.48;;;;;;;;;;5101468;28;20066;-82
2021/01/06 16:56:48;;;;;;;14.85;8.18;;;;;;;;;;5095893;28;20032;-82
2021/01/06 16:59:15;;;;;;;16.00;9.35;;;;;;;;;;5090523;28;20023;-82
2021/01/06 17:01:46;;;;;;;15.70;10.05;;;;;;;;;;5098970;28;20039;-82
2021/01/06 17:04:13;;;;;;;15.38;9.55;;;;;;;;;;5093659;28;20032;-82
2021/01/06 17:06:41;;;;;;;14.95;8.48;;;;;;;;;;5092701;28;20618;-82
2021/01/06 17:09:16;;;;;;;13.07;7.85;;;;;;;;;;5102067;28;20115;-82
2021/01/06 17:12:05;;;;;;;12.52;7.75;;;;;;;;;;5089362;28;20380;-80
2021/01/06 17:14:32;;;;;;;22.33;12.68;;;;;;;;;;5078801;28;20033;-82
2021/01/06 17:17:01;;;;;;;17.88;11.25;;;;;;;;;;5095306;28;20480;-81
2021/01/06 17:19:28;;;;;;;17.55;10.93;;;;;;;;;;5088759;28;20028;-81
2021/01/06 17:21:54;;;;;;;15.70;10.77;;;;;;;;;;5092858;28;20050;-82
2021/01/06 17:24:24;;;;;;;13.27;8.77;;;;;;;;;;5094449;28;20036;-82
2021/01/06 17:26:56;;;;;;;16.67;9.25;;;;;;;;;;5097214;28;20020;-82
2021/01/06 17:29:22;;;;;;;16.95;10.13;;;;;;;;;;5098873;28;20110;-82
2021/01/06 17:31:48;;;;;;;16.05;9.68;;;;;;;;;;5106040;28;20032;-82
2021/01/06 17:34:21;;;;;;;16.95;10.05;;;;;;;;;;5096096;28;20028;-81
2021/01/06 17:36:47;;;;;;;16.20;9.77;;;;;;;;;;5095789;28;20035;-81
2021/01/06 17:39:14;;;;;;;18.17;10.93;;;;;;;;;;5094813;28;20020;-82
2021/01/06 17:41:40;;;;;;;21.08;13.52;;;;;;;;;;5092405;28;20020;-81
2021/01/06 17:44:07;;;;;;;20.83;12.98;;;;;;;;;;5093193;28;20099;-81
2021/01/06 17:46:36;;;;;;;21.00;12.98;;;;;;;;;;5092207;28;20154;-81
2021/01/06 17:49:03;;;;;;;20.52;12.18;;;;;;;;;;5088367;28;20020;-81
2021/01/06 17:51:30;;;;;;;18.83;11.02;;;;;;;;;;5093592;28;20046;-81
2021/01/06 17:53:57;;;;;;;23.15;12.90;;;;;;;;;;5096373;28;20032;-81
2021/01/06 17:56:25;;;;;;;21.27;12.57;;;;;;;;;;5090402;28;20032;-81
2021/01/06 17:58:52;;;;;;;20.15;10.50;;;;;;;;;;5080359;28;20028;-81
2021/01/06 18:01:18;;;;;;;19.33;11.98;;;;;;;;;;5068175;28;20090;-81
2021/01/06 18:04:13;;;;;;;17.70;12.02;;;;;;;;;;5087396;28;20032;-81
2021/01/06 18:06:39;;;;;;;23.20;13.38;;;;;;;;;;5081793;28;20043;-81
2021/01/06 18:09:13;;;;;;;24.33;14.05;;;;;;;;;;5077230;28;20149;-81
2021/01/06 18:11:39;;;;;;;19.90;12.75;;;;;;;;;;5083775;28;20039;-80
2021/01/06 18:14:05;;;;;;;20.02;11.30;;;;;;;;;;5072288;28;20024;-80
2021/01/06 18:16:32;;;;;;;19.25;11.65;;;;;;;;;;5082077;28;20063;-81
2021/01/06 18:18:58;;;;;;;19.15;10.88;;;;;;;;;;5078137;28;20082;-81
2021/01/06 18:21:34;;;;;;;18.02;10.98;;;;;;;;;;5079031;28;20511;-81
2021/01/06 18:24:14;;;;;;;20.10;11.27;;;;;;;;;;5074547;28;20033;-79
2021/01/06 18:26:40;;;;;;;19.77;10.85;;;;;;;;;;5074058;28;20369;-81
2021/01/06 18:29:10;;;;;;;26.48;14.68;;;;;;;;;;5079982;28;20029;-81
2021/01/06 18:31:36;;;;;;;36.53;20.40;;;;;;;;;;5079988;28;20035;-81
2021/01/06 18:34:02;;;;;;;26.33;16.27;;;;;;;;;;5079682;28;20020;-81
2021/01/06 18:36:34;;;;;;;22.00;14.13;;;;;;;;;;5081259;28;20024;-81
2021/01/06 18:39:00;;;;;;;;;;;;;;;;;;5077497;28;20167;-80
2021/01/06 18:41:27;;;;;;;19.80;11.20;;;;;;;;;;5094231;28;20006;-80
2021/01/06 18:46:28;;;;;;;18.55;11.60;;;;;;;;;;5104685;27;20399;-80
2021/01/06 18:48:54;;;;;;;19.85;12.48;;;;;;;;;;5098679;28;20533;-79
2021/01/06 18:51:20;;;;;;;27.77;15.63;;;;;;;;;;5089912;28;20020;-80
2021/01/06 18:53:45;;;;;;;33.63;20.35;;;;;;;;;;5090476;28;20358;-80
2021/01/06 18:56:11;;;;;;;21.98;14.63;;;;;;;;;;5098408;28;20479;-79
2021/01/06 18:58:38;;;;;;;22.20;13.63;;;;;;;;;;5090439;28;20099;-80
2021/01/06 19:01:33;;;;;;;20.40;12.40;;;;;;;;;;5093263;28;20052;-82
2021/01/06 19:03:59;;;;;;;23.08;13.57;;;;;;;;;;5080313;28;20112;-79
2021/01/06 19:06:32;;;;;;;17.25;11.68;;;;;;;;;;5089061;28;20120;-80
2021/01/06 19:08:58;;;;;;;17.35;11.35;;;;;;;;;;5091657;28;20046;-79
2021/01/06 19:11:24;;;;;;;18.25;11.48;;;;;;;;;;5091888;28;20025;-79
2021/01/06 19:13:51;;;;;;;17.95;10.68;;;;;;;;;;5093512;28;20048;-78
2021/01/06 19:18:36;;;;;;;17.95;11.23;;;;;;;;;;5107461;27;20353;-80
2021/01/06 19:21:02;;;;;;;22.02;12.93;;;;;;;;;;5083886;28;20037;-79
2021/01/06 19:23:29;;;;;;;20.90;10.50;;;;;;;;;;5086540;28;20035;-80
2021/01/06 19:25:56;;;;;;;19.05;10.73;;;;;;;;;;5086320;28;20032;-80
2021/01/06 19:28:22;;;;;;;18.27;11.80;;;;;;;;;;5086371;28;20016;-80
2021/01/06 19:30:48;;;;;;;17.80;10.18;;;;;;;;;;5080677;28;20727;-80
2021/01/06 19:33:16;;;;;;;17.88;10.38;;;;;;;;;;5085803;28;20028;-79
2021/01/06 19:35:42;;;;;;;17.55;10.98;;;;;;;;;;5078237;28;20025;-80
2021/01/06 19:38:10;;;;;;;21.65;11.20;;;;;;;;;;5082398;28;20115;-80
2021/01/06 19:40:37;;;;;;;18.42;11.38;;;;;;;;;;5076977;28;20044;-80
2021/01/06 19:43:07;;;;;;;17.65;11.13;;;;;;;;;;5084953;28;20017;-80
2021/01/06 19:45:34;;;;;;;19.88;11.50;;;;;;;;;;5087262;28;20037;-79
2021/01/06 19:48:04;;;;;;;21.65;13.13;;;;;;;;;;5088263;28;20115;-80
2021/01/06 19:50:31;;;;;;;20.15;11.18;;;;;;;;;;5084624;28;20623;-81
2021/01/06 19:53:10;;;;;;;21.70;12.20;;;;;;;;;;5077988;28;20060;-80
2021/01/06 19:58:13;;;;;;;20.10;11.75;;;;;;;;;;5124378;27;20786;-81
2021/01/06 20:00:39;;;;;;;19.85;12.02;;;;;;;;;;5078836;28;20028;-79
2021/01/06 20:03:05;;;;;;;17.83;11.80;;;;;;;;;;5100073;28;20042;-79
2021/01/06 20:05:30;;;;;;;20.20;11.98;;;;;;;;;;5092161;28;20028;-80
2021/01/06 20:07:56;;;;;;;20.45;11.75;;;;;;;;;;5095959;28;20024;-79
2021/01/06 20:10:24;;;;;;;19.73;12.13;;;;;;;;;;5095286;28;20039;-79
2021/01/06 20:12:50;;;;;;;21.88;12.32;;;;;;;;;;5105374;28;20028;-79
2021/01/06 20:15:16;;;;;;;19.58;12.13;;;;;;;;;;5105030;28;20434;-79
2021/01/06 20:17:43;;;;;;;23.88;12.52;;;;;;;;;;5099200;28;20024;-80
2021/01/06 20:20:09;;;;;;;19.83;12.07;;;;;;;;;;5087309;28;20034;-79
2021/01/06 20:22:37;;;;;;;20.60;12.82;;;;;;;;;;5090537;28;20027;-80
2021/01/06 20:25:03;;;;;;;19.92;12.43;;;;;;;;;;5076226;28;20066;-80
2021/01/06 20:27:29;;;;;;;19.95;12.13;;;;;;;;;;5106232;28;20057;-79
2021/01/06 20:29:55;;;;;;;37.08;20.67;;;;;;;;;;5106973;28;20028;-79
2021/01/06 20:32:21;;;;;;;25.98;16.20;;;;;;;;;;5103652;28;20055;-79
2021/01/06 20:34:47;;;;;;;20.92;13.60;;;;;;;;;;5083750;28;20028;-79
2021/01/06 20:37:13;;;;;;;25.38;14.18;;;;;;;;;;5082198;28;20086;-80
2021/01/06 20:39:39;;;;;;;30.90;16.60;;;;;;;;;;5102410;28;20082;-79
2021/01/06 20:42:05;;;;;;;24.92;15.00;;;;;;;;;;5084124;28;20028;-79
2021/01/06 20:44:31;;;;;;;24.65;14.85;;;;;;;;;;5086581;28;20576;-79
2021/01/06 20:46:59;;;;;;;24.23;14.77;;;;;;;;;;5085685;28;20480;-79
2021/01/06 20:49:25;;;;;;;20.20;11.73;;;;;;;;;;5091143;28;20114;-79
2021/01/06 20:51:54;;;;;;;21.08;13.38;;;;;;;;;;5103324;28;20205;-79
2021/01/06 20:54:20;;;;;;;20.50;13.70;;;;;;;;;;5099728;28;20059;-79
2021/01/06 20:56:51;;;;;;;20.75;12.65;;;;;;;;;;5083357;28;20027;-79
2021/01/06 20:59:17;;;;;;;24.38;13.23;;;;;;;;;;5086043;28;20027;-79
2021/01/06 21:01:44;;;;;;;22.95;13.63;;;;;;;;;;5100514;28;20396;-79
2021/01/06 21:04:10;;;;;;;23.15;13.27;;;;;;;;;;5082692;28;20818;-79
2021/01/06 21:06:36;;;;;;;21.42;11.95;;;;;;;;;;5102476;28;20111;-79